sensor_id;sensor_type;location;lat;lon;timestamp;temperature;humidity
7216;DHT22;3649;48.798;9.798;2023-07-30T00:02:23;19.70;99.90
7216;DHT22;3649;48.798;9.798;2023-07-30T00:04:50;19.60;99.90
7216;DHT22;3649;48.798;9.798;2023-07-30T00:07:17;19.70;99.90
7216;DHT22;3649;48.798;9.798;2023-07-30T00:09:44;19.70;99.90
7216;DHT22;3649;48.798;9.798;2023-07-30T00:12:10;19.70;99.90
7216;DHT22;3649;48.798;9.798;2023-07-30T00:14:37;19.70;99.90
7216;DHT22;3649;48.798;9.798;2023-07-30T00:17:04;19.60;99.90
7216;DHT22;3649;48.798;9.798;2023-07-30T00:19:31;19.50;99.90
7216;DHT22;3649;48.798;9.798;2023-07-30T00:21:58;19.40;99.90
7216;DHT22;3649;48.798;9.798;2023-07-30T00:24:25;19.40;99.90
7216;DHT22;3649;48.798;9.798;2023-07-30T00:26:51;19.30;99.90
7216;DHT22;3649;48.798;9.798;2023-07-30T00:29:18;19.20;99.90
7216;DHT22;3649;48.798;9.798;2023-07-30T00:31:46;19.10;99.90
7216;DHT22;3649;48.798;9.798;2023-07-30T00:34:13;19.10;99.90
7216;DHT22;3649;48.798;9.798;2023-07-30T00:36:40;19.10;99.90
7216;DHT22;3649;48.798;9.798;2023-07-30T00:39:07;19.00;99.90
7216;DHT22;3649;48.798;9.798;2023-07-30T00:41:33;19.20;99.90
7216;DHT22;3649;48.798;9.798;2023-07-30T00:44:00;19.20;99.90
7216;DHT22;3649;48.798;9.798;2023-07-30T00:46:27;19.20;99.90
7216;DHT22;3649;48.798;9.798;2023-07-30T00:48:54;19.10;99.90
7216;DHT22;3649;48.798;9.798;2023-07-30T00:51:21;19.10;99.90
7216;DHT22;3649;48.798;9.798;2023-07-30T00:53:48;19.20;99.90
7216;DHT22;3649;48.798;9.798;2023-07-30T00:56:15;19.20;99.90
7216;DHT22;3649;48.798;9.798;2023-07-30T00:58:44;19.20;99.90
7216;DHT22;3649;48.798;9.798;2023-07-30T01:01:13;19.20;99.90
7216;DHT22;3649;48.798;9.798;2023-07-30T01:03:40;19.20;99.90
7216;DHT22;3649;48.798;9.798;2023-07-30T01:06:07;19.30;99.90
7216;DHT22;3649;48.798;9.798;2023-07-30T01:08:34;19.30;99.90
7216;DHT22;3649;48.798;9.798;2023-07-30T01:11:03;19.20;99.90
7216;DHT22;3649;48.798;9.798;2023-07-30T01:13:32;19.50;99.90
7216;DHT22;3649;48.798;9.798;2023-07-30T01:16:00;19.40;99.90
7216;DHT22;3649;48.798;9.798;2023-07-30T01:18:27;19.40;99.90
7216;DHT22;3649;48.798;9.798;2023-07-30T01:20:57;19.50;99.90
7216;DHT22;3649;48.798;9.798;2023-07-30T01:23:24;19.50;99.90
7216;DHT22;3649;48.798;9.798;2023-07-30T01:26:00;19.50;99.90
7216;DHT22;3649;48.798;9.798;2023-07-30T01:28:35;19.60;99.90
7216;DHT22;3649;48.798;9.798;2023-07-30T01:31:05;19.50;99.90
7216;DHT22;3649;48.798;9.798;2023-07-30T01:33:33;19.60;99.90
7216;DHT22;3649;48.798;9.798;2023-07-30T01:36:01;19.60;99.90
7216;DHT22;3649;48.798;9.798;2023-07-30T01:38:29;19.60;99.90
7216;DHT22;3649;48.798;9.798;2023-07-30T01:40:56;19.60;99.90
7216;DHT22;3649;48.798;9.798;2023-07-30T01:43:23;19.60;99.90
7216;DHT22;3649;48.798;9.798;2023-07-30T01:45:50;19.60;99.90
7216;DHT22;3649;48.798;9.798;2023-07-30T01:48:17;19.70;99.90
7216;DHT22;3649;48.798;9.798;2023-07-30T01:50:44;19.70;99.90
7216;DHT22;3649;48.798;9.798;2023-07-30T06:48:25;21.40;99.90
7216;DHT22;3649;48.798;9.798;2023-07-30T06:50:51;21.40;99.90
7216;DHT22;3649;48.798;9.798;2023-07-30T06:53:18;21.50;99.90
7216;DHT22;3649;48.798;9.798;2023-07-30T06:55:45;21.50;99.90
7216;DHT22;3649;48.798;9.798;2023-07-30T06:58:12;21.50;99.90
7216;DHT22;3649;48.798;9.798;2023-07-30T07:00:40;21.50;99.90
7216;DHT22;3649;48.798;9.798;2023-07-30T07:03:07;21.60;99.90
7216;DHT22;3649;48.798;9.798;2023-07-30T07:05:34;21.70;99.90
7216;DHT22;3649;48.798;9.798;2023-07-30T07:08:01;21.70;99.90
7216;DHT22;3649;48.798;9.798;2023-07-30T07:10:28;21.80;99.90
7216;DHT22;3649;48.798;9.798;2023-07-30T07:12:55;21.80;99.90
7216;DHT22;3649;48.798;9.798;2023-07-30T07:15:21;21.80;99.90
7216;DHT22;3649;48.798;9.798;2023-07-30T07:17:48;21.80;99.90
7216;DHT22;3649;48.798;9.798;2023-07-30T07:20:15;21.90;99.90
7216;DHT22;3649;48.798;9.798;2023-07-30T07:22:42;21.90;99.90
7216;DHT22;3649;48.798;9.798;2023-07-30T07:25:09;22.00;99.90
7216;DHT22;3649;48.798;9.798;2023-07-30T07:27:37;22.00;99.90
7216;DHT22;3649;48.798;9.798;2023-07-30T07:30:04;22.10;99.90
7216;DHT22;3649;48.798;9.798;2023-07-30T07:32:31;22.10;99.90
7216;DHT22;3649;48.798;9.798;2023-07-30T07:35:04;22.10;99.90
7216;DHT22;3649;48.798;9.798;2023-07-30T07:37:32;22.10;99.90
7216;DHT22;3649;48.798;9.798;2023-07-30T07:40:00;22.10;99.90
7216;DHT22;3649;48.798;9.798;2023-07-30T07:42:27;22.10;99.90
7216;DHT22;3649;48.798;9.798;2023-07-30T07:44:53;22.10;99.90
7216;DHT22;3649;48.798;9.798;2023-07-30T07:47:20;22.10;99.90
7216;DHT22;3649;48.798;9.798;2023-07-30T07:49:47;22.20;99.90
7216;DHT22;3649;48.798;9.798;2023-07-30T07:52:15;22.10;99.90
7216;DHT22;3649;48.798;9.798;2023-07-30T07:54:41;22.20;99.90
7216;DHT22;3649;48.798;9.798;2023-07-30T07:57:08;22.10;99.90
7216;DHT22;3649;48.798;9.798;2023-07-30T07:59:35;22.10;99.90
7216;DHT22;3649;48.798;9.798;2023-07-30T08:02:02;22.10;99.90
7216;DHT22;3649;48.798;9.798;2023-07-30T08:04:29;22.10;99.90
7216;DHT22;3649;48.798;9.798;2023-07-30T08:06:56;22.10;99.90
7216;DHT22;3649;48.798;9.798;2023-07-30T08:09:27;22.10;99.90
7216;DHT22;3649;48.798;9.798;2023-07-30T08:11:53;22.10;99.90
7216;DHT22;3649;48.798;9.798;2023-07-30T08:14:20;22.20;99.90
7216;DHT22;3649;48.798;9.798;2023-07-30T08:16:48;22.20;99.90
7216;DHT22;3649;48.798;9.798;2023-07-30T08:19:15;22.20;99.90
7216;DHT22;3649;48.798;9.798;2023-07-30T08:21:41;22.20;99.90
7216;DHT22;3649;48.798;9.798;2023-07-30T08:24:12;22.20;99.90
7216;DHT22;3649;48.798;9.798;2023-07-30T08:26:39;22.20;99.90
7216;DHT22;3649;48.798;9.798;2023-07-30T08:29:06;22.30;99.90
7216;DHT22;3649;48.798;9.798;2023-07-30T08:31:35;22.30;99.90
7216;DHT22;3649;48.798;9.798;2023-07-30T08:34:02;22.10;99.90
7216;DHT22;3649;48.798;9.798;2023-07-30T08:36:29;22.00;99.90
7216;DHT22;3649;48.798;9.798;2023-07-30T08:38:57;21.80;99.90
7216;DHT22;3649;48.798;9.798;2023-07-30T08:41:24;21.60;99.90
7216;DHT22;3649;48.798;9.798;2023-07-30T08:43:51;21.50;99.90
7216;DHT22;3649;48.798;9.798;2023-07-30T08:46:19;21.40;99.90
7216;DHT22;3649;48.798;9.798;2023-07-30T08:48:46;21.20;99.90
7216;DHT22;3649;48.798;9.798;2023-07-30T08:51:16;21.20;99.90
7216;DHT22;3649;48.798;9.798;2023-07-30T08:53:44;21.10;99.90
7216;DHT22;3649;48.798;9.798;2023-07-30T08:56:11;21.00;99.90
7216;DHT22;3649;48.798;9.798;2023-07-30T08:58:39;21.00;99.90
7216;DHT22;3649;48.798;9.798;2023-07-30T09:01:09;20.90;99.90
7216;DHT22;3649;48.798;9.798;2023-07-30T09:03:40;20.90;99.90
7216;DHT22;3649;48.798;9.798;2023-07-30T09:06:07;21.00;99.90
7216;DHT22;3649;48.798;9.798;2023-07-30T09:08:34;21.00;99.90
7216;DHT22;3649;48.798;9.798;2023-07-30T09:11:08;21.10;99.90
7216;DHT22;3649;48.798;9.798;2023-07-30T09:13:40;21.20;99.90
7216;DHT22;3649;48.798;9.798;2023-07-30T09:16:09;21.30;99.90
7216;DHT22;3649;48.798;9.798;2023-07-30T09:18:45;21.40;99.90
7216;DHT22;3649;48.798;9.798;2023-07-30T09:21:13;21.40;99.90
7216;DHT22;3649;48.798;9.798;2023-07-30T09:23:45;21.40;99.90
7216;DHT22;3649;48.798;9.798;2023-07-30T09:26:13;21.40;99.90
7216;DHT22;3649;48.798;9.798;2023-07-30T09:28:40;21.50;99.90
7216;DHT22;3649;48.798;9.798;2023-07-30T09:31:08;21.60;99.90
7216;DHT22;3649;48.798;9.798;2023-07-30T09:33:48;21.60;99.90
7216;DHT22;3649;48.798;9.798;2023-07-30T09:36:15;21.60;99.90
7216;DHT22;3649;48.798;9.798;2023-07-30T09:38:43;21.70;99.90
7216;DHT22;3649;48.798;9.798;2023-07-30T09:41:11;21.70;99.90
7216;DHT22;3649;48.798;9.798;2023-07-30T09:43:38;21.80;99.90
7216;DHT22;3649;48.798;9.798;2023-07-30T09:46:06;21.90;99.90
7216;DHT22;3649;48.798;9.798;2023-07-30T09:48:34;22.00;99.90
7216;DHT22;3649;48.798;9.798;2023-07-30T09:51:03;22.10;99.90
7216;DHT22;3649;48.798;9.798;2023-07-30T09:53:31;22.10;99.90
7216;DHT22;3649;48.798;9.798;2023-07-30T09:56:02;22.20;99.90
7216;DHT22;3649;48.798;9.798;2023-07-30T09:58:30;22.20;99.90
7216;DHT22;3649;48.798;9.798;2023-07-30T10:01:01;22.30;99.90
7216;DHT22;3649;48.798;9.798;2023-07-30T10:03:29;22.40;99.90
7216;DHT22;3649;48.798;9.798;2023-07-30T10:06:03;22.40;99.90
7216;DHT22;3649;48.798;9.798;2023-07-30T10:08:34;22.40;99.90
7216;DHT22;3649;48.798;9.798;2023-07-30T10:11:05;22.50;99.90
7216;DHT22;3649;48.798;9.798;2023-07-30T10:13:35;22.50;99.90
7216;DHT22;3649;48.798;9.798;2023-07-30T10:16:03;22.40;99.90
7216;DHT22;3649;48.798;9.798;2023-07-30T10:18:40;22.40;99.90
7216;DHT22;3649;48.798;9.798;2023-07-30T10:21:08;22.40;99.90
7216;DHT22;3649;48.798;9.798;2023-07-30T10:23:46;22.40;99.90
7216;DHT22;3649;48.798;9.798;2023-07-30T10:26:13;22.40;99.90
7216;DHT22;3649;48.798;9.798;2023-07-30T10:28:39;22.30;99.90
7216;DHT22;3649;48.798;9.798;2023-07-30T10:31:10;22.40;99.90
7216;DHT22;3649;48.798;9.798;2023-07-30T10:33:49;22.30;99.90
7216;DHT22;3649;48.798;9.798;2023-07-30T10:36:18;22.20;99.90
7216;DHT22;3649;48.798;9.798;2023-07-30T10:38:53;22.10;99.90
7216;DHT22;3649;48.798;9.798;2023-07-30T10:41:21;22.10;99.90
7216;DHT22;3649;48.798;9.798;2023-07-30T10:43:49;22.10;99.90
7216;DHT22;3649;48.798;9.798;2023-07-30T10:46:18;22.10;99.90
7216;DHT22;3649;48.798;9.798;2023-07-30T10:48:47;22.10;99.90
7216;DHT22;3649;48.798;9.798;2023-07-30T10:51:19;22.10;99.90
7216;DHT22;3649;48.798;9.798;2023-07-30T10:53:48;22.10;99.90
7216;DHT22;3649;48.798;9.798;2023-07-30T10:56:17;22.10;99.90
7216;DHT22;3649;48.798;9.798;2023-07-30T10:58:49;22.10;99.90
7216;DHT22;3649;48.798;9.798;2023-07-30T11:01:16;22.20;99.90
7216;DHT22;3649;48.798;9.798;2023-07-30T11:03:43;22.20;99.90
7216;DHT22;3649;48.798;9.798;2023-07-30T11:06:10;22.30;99.90
7216;DHT22;3649;48.798;9.798;2023-07-30T11:08:41;22.30;99.90
7216;DHT22;3649;48.798;9.798;2023-07-30T11:11:10;22.40;99.90
7216;DHT22;3649;48.798;9.798;2023-07-30T11:13:41;22.40;99.90
7216;DHT22;3649;48.798;9.798;2023-07-30T11:16:09;22.50;99.90
7216;DHT22;3649;48.798;9.798;2023-07-30T11:18:37;21.80;99.90
7216;DHT22;3649;48.798;9.798;2023-07-30T11:21:12;22.50;99.90
7216;DHT22;3649;48.798;9.798;2023-07-30T11:23:40;22.60;99.90
7216;DHT22;3649;48.798;9.798;2023-07-30T11:26:12;22.60;99.90
7216;DHT22;3649;48.798;9.798;2023-07-30T11:28:40;22.60;99.90
7216;DHT22;3649;48.798;9.798;2023-07-30T11:31:08;22.60;99.90
7216;DHT22;3649;48.798;9.798;2023-07-30T11:33:36;22.70;99.90
7216;DHT22;3649;48.798;9.798;2023-07-30T11:36:06;22.70;99.90
7216;DHT22;3649;48.798;9.798;2023-07-30T11:38:34;22.70;99.90
7216;DHT22;3649;48.798;9.798;2023-07-30T11:41:01;22.80;99.90
7216;DHT22;3649;48.798;9.798;2023-07-30T11:43:29;22.90;99.90
7216;DHT22;3649;48.798;9.798;2023-07-30T11:46:13;22.80;99.90
7216;DHT22;3649;48.798;9.798;2023-07-30T11:48:43;22.90;99.90
7216;DHT22;3649;48.798;9.798;2023-07-30T11:51:27;22.90;99.90
7216;DHT22;3649;48.798;9.798;2023-07-30T11:53:59;22.90;99.90
7216;DHT22;3649;48.798;9.798;2023-07-30T11:56:29;22.90;99.90
7216;DHT22;3649;48.798;9.798;2023-07-30T11:58:59;23.00;99.90
7216;DHT22;3649;48.798;9.798;2023-07-30T12:01:29;22.90;99.90
7216;DHT22;3649;48.798;9.798;2023-07-30T12:03:57;22.90;99.90
7216;DHT22;3649;48.798;9.798;2023-07-30T12:06:47;22.90;99.90
7216;DHT22;3649;48.798;9.798;2023-07-30T12:09:19;22.80;99.90
7216;DHT22;3649;48.798;9.798;2023-07-30T12:11:59;22.80;99.90
7216;DHT22;3649;48.798;9.798;2023-07-30T12:14:29;22.90;99.90
7216;DHT22;3649;48.798;9.798;2023-07-30T12:17:09;22.90;99.90
7216;DHT22;3649;48.798;9.798;2023-07-30T12:19:37;22.90;99.90
7216;DHT22;3649;48.798;9.798;2023-07-30T12:22:04;22.80;99.90
7216;DHT22;3649;48.798;9.798;2023-07-30T12:24:31;23.00;99.90
7216;DHT22;3649;48.798;9.798;2023-07-30T12:26:58;22.80;99.90
7216;DHT22;3649;48.798;9.798;2023-07-30T12:29:25;22.80;99.90
7216;DHT22;3649;48.798;9.798;2023-07-30T12:31:52;22.80;99.90
7216;DHT22;3649;48.798;9.798;2023-07-30T12:34:23;22.80;99.90
7216;DHT22;3649;48.798;9.798;2023-07-30T12:36:50;22.80;99.90
7216;DHT22;3649;48.798;9.798;2023-07-30T12:39:17;22.80;99.90
7216;DHT22;3649;48.798;9.798;2023-07-30T12:41:44;22.80;99.90
7216;DHT22;3649;48.798;9.798;2023-07-30T12:44:11;22.70;99.90
7216;DHT22;3649;48.798;9.798;2023-07-30T12:46:38;22.90;99.90
7216;DHT22;3649;48.798;9.798;2023-07-30T12:49:05;23.00;99.90
7216;DHT22;3649;48.798;9.798;2023-07-30T12:51:32;22.90;99.90
7216;DHT22;3649;48.798;9.798;2023-07-30T12:54:00;23.20;99.90
7216;DHT22;3649;48.798;9.798;2023-07-30T12:56:27;23.10;99.90
7216;DHT22;3649;48.798;9.798;2023-07-30T12:58:53;22.90;99.90
7216;DHT22;3649;48.798;9.798;2023-07-30T13:01:20;23.00;99.90
7216;DHT22;3649;48.798;9.798;2023-07-30T13:03:48;23.10;99.90
7216;DHT22;3649;48.798;9.798;2023-07-30T13:06:15;23.10;99.90
7216;DHT22;3649;48.798;9.798;2023-07-30T13:08:42;23.10;99.90
7216;DHT22;3649;48.798;9.798;2023-07-30T13:11:09;23.10;99.90
7216;DHT22;3649;48.798;9.798;2023-07-30T13:13:36;23.30;99.90
7216;DHT22;3649;48.798;9.798;2023-07-30T13:16:03;23.40;99.90
7216;DHT22;3649;48.798;9.798;2023-07-30T13:18:30;23.40;99.90
7216;DHT22;3649;48.798;9.798;2023-07-30T13:20:57;23.50;99.90
7216;DHT22;3649;48.798;9.798;2023-07-30T13:23:25;23.60;99.90
7216;DHT22;3649;48.798;9.798;2023-07-30T13:25:52;23.60;99.90
7216;DHT22;3649;48.798;9.798;2023-07-30T13:28:19;23.70;99.90
7216;DHT22;3649;48.798;9.798;2023-07-30T13:30:46;23.60;99.90
7216;DHT22;3649;48.798;9.798;2023-07-30T13:33:13;23.70;99.90
7216;DHT22;3649;48.798;9.798;2023-07-30T13:35:40;23.70;99.90
7216;DHT22;3649;48.798;9.798;2023-07-30T13:38:06;23.70;99.90
7216;DHT22;3649;48.798;9.798;2023-07-30T13:40:33;23.80;99.90
7216;DHT22;3649;48.798;9.798;2023-07-30T13:43:00;23.80;99.90
7216;DHT22;3649;48.798;9.798;2023-07-30T13:45:27;23.80;99.90
7216;DHT22;3649;48.798;9.798;2023-07-30T13:47:54;23.80;99.90
7216;DHT22;3649;48.798;9.798;2023-07-30T13:50:21;23.90;99.90
7216;DHT22;3649;48.798;9.798;2023-07-30T13:52:48;24.00;99.90
7216;DHT22;3649;48.798;9.798;2023-07-30T13:55:18;23.90;99.90
7216;DHT22;3649;48.798;9.798;2023-07-30T13:57:46;23.90;99.90
7216;DHT22;3649;48.798;9.798;2023-07-30T14:00:13;23.90;99.90
7216;DHT22;3649;48.798;9.798;2023-07-30T14:02:41;23.80;99.90
7216;DHT22;3649;48.798;9.798;2023-07-30T14:05:09;23.80;99.90
7216;DHT22;3649;48.798;9.798;2023-07-30T14:07:36;23.80;99.90
7216;DHT22;3649;48.798;9.798;2023-07-30T14:10:04;23.90;99.90
7216;DHT22;3649;48.798;9.798;2023-07-30T14:12:31;23.80;99.90
7216;DHT22;3649;48.798;9.798;2023-07-30T14:14:57;23.90;99.90
7216;DHT22;3649;48.798;9.798;2023-07-30T14:17:24;23.80;99.90
7216;DHT22;3649;48.798;9.798;2023-07-30T14:19:51;23.90;99.90
7216;DHT22;3649;48.798;9.798;2023-07-30T14:22:18;23.90;99.90
7216;DHT22;3649;48.798;9.798;2023-07-30T14:24:45;23.90;99.90
7216;DHT22;3649;48.798;9.798;2023-07-30T14:27:11;23.90;99.90
7216;DHT22;3649;48.798;9.798;2023-07-30T14:29:38;23.90;99.90
7216;DHT22;3649;48.798;9.798;2023-07-30T14:32:06;23.80;99.90
7216;DHT22;3649;48.798;9.798;2023-07-30T14:34:32;23.80;99.90
7216;DHT22;3649;48.798;9.798;2023-07-30T14:36:59;23.90;99.90
7216;DHT22;3649;48.798;9.798;2023-07-30T14:39:26;23.80;99.90
7216;DHT22;3649;48.798;9.798;2023-07-30T14:41:53;23.90;99.90
7216;DHT22;3649;48.798;9.798;2023-07-30T14:44:20;23.90;99.90
7216;DHT22;3649;48.798;9.798;2023-07-30T14:46:48;23.90;99.90
7216;DHT22;3649;48.798;9.798;2023-07-30T14:49:14;23.90;99.90
7216;DHT22;3649;48.798;9.798;2023-07-30T14:51:44;23.80;99.90
7216;DHT22;3649;48.798;9.798;2023-07-30T14:54:11;23.80;99.90
7216;DHT22;3649;48.798;9.798;2023-07-30T14:56:39;23.80;99.90
7216;DHT22;3649;48.798;9.798;2023-07-30T14:59:06;23.90;99.90
7216;DHT22;3649;48.798;9.798;2023-07-30T15:01:33;23.90;99.90
7216;DHT22;3649;48.798;9.798;2023-07-30T15:04:00;23.90;99.90
7216;DHT22;3649;48.798;9.798;2023-07-30T15:06:27;23.90;99.90
7216;DHT22;3649;48.798;9.798;2023-07-30T15:08:59;23.90;99.90
7216;DHT22;3649;48.798;9.798;2023-07-30T15:11:26;23.80;99.90
7216;DHT22;3649;48.798;9.798;2023-07-30T15:13:53;23.80;99.90
7216;DHT22;3649;48.798;9.798;2023-07-30T15:16:20;23.80;99.90
7216;DHT22;3649;48.798;9.798;2023-07-30T15:18:47;23.80;99.90
7216;DHT22;3649;48.798;9.798;2023-07-30T15:21:14;23.80;99.90
7216;DHT22;3649;48.798;9.798;2023-07-30T15:23:45;23.80;99.90
7216;DHT22;3649;48.798;9.798;2023-07-30T15:26:12;23.80;99.90
7216;DHT22;3649;48.798;9.798;2023-07-30T15:28:40;23.80;99.90
7216;DHT22;3649;48.798;9.798;2023-07-30T15:31:07;23.90;99.90
7216;DHT22;3649;48.798;9.798;2023-07-30T15:33:34;23.90;99.90
7216;DHT22;3649;48.798;9.798;2023-07-30T15:36:02;23.90;99.90
7216;DHT22;3649;48.798;9.798;2023-07-30T15:38:29;23.90;99.90
7216;DHT22;3649;48.798;9.798;2023-07-30T15:40:56;23.80;99.90
7216;DHT22;3649;48.798;9.798;2023-07-30T15:43:23;23.90;99.90
7216;DHT22;3649;48.798;9.798;2023-07-30T15:45:51;23.80;99.90
7216;DHT22;3649;48.798;9.798;2023-07-30T15:48:20;23.80;99.90
7216;DHT22;3649;48.798;9.798;2023-07-30T15:50:47;22.00;99.90
7216;DHT22;3649;48.798;9.798;2023-07-30T15:53:15;23.80;99.90
7216;DHT22;3649;48.798;9.798;2023-07-30T15:55:42;23.80;99.90
7216;DHT22;3649;48.798;9.798;2023-07-30T15:58:08;23.70;99.90
7216;DHT22;3649;48.798;9.798;2023-07-30T16:00:35;23.60;99.90
7216;DHT22;3649;48.798;9.798;2023-07-30T16:03:02;23.60;99.90
7216;DHT22;3649;48.798;9.798;2023-07-30T16:05:32;23.50;99.90
7216;DHT22;3649;48.798;9.798;2023-07-30T16:07:59;23.40;99.90
7216;DHT22;3649;48.798;9.798;2023-07-30T16:10:26;23.40;99.90
7216;DHT22;3649;48.798;9.798;2023-07-30T16:12:53;23.30;99.90
7216;DHT22;3649;48.798;9.798;2023-07-30T16:15:26;23.40;99.90
7216;DHT22;3649;48.798;9.798;2023-07-30T16:17:54;23.40;99.90
7216;DHT22;3649;48.798;9.798;2023-07-30T16:20:22;23.40;99.90
7216;DHT22;3649;48.798;9.798;2023-07-30T16:22:49;23.40;99.90
7216;DHT22;3649;48.798;9.798;2023-07-30T16:25:16;23.40;99.90
7216;DHT22;3649;48.798;9.798;2023-07-30T16:27:43;23.30;99.90
7216;DHT22;3649;48.798;9.798;2023-07-30T16:30:10;23.30;99.90
7216;DHT22;3649;48.798;9.798;2023-07-30T16:32:37;23.30;99.90
7216;DHT22;3649;48.798;9.798;2023-07-30T16:35:04;23.30;99.90
7216;DHT22;3649;48.798;9.798;2023-07-30T16:37:32;23.20;99.90
7216;DHT22;3649;48.798;9.798;2023-07-30T16:39:59;23.20;99.90
7216;DHT22;3649;48.798;9.798;2023-07-30T16:42:26;23.10;99.90
7216;DHT22;3649;48.798;9.798;2023-07-30T16:44:53;23.10;99.90
7216;DHT22;3649;48.798;9.798;2023-07-30T16:47:21;23.10;99.90
7216;DHT22;3649;48.798;9.798;2023-07-30T16:49:49;23.10;99.90
7216;DHT22;3649;48.798;9.798;2023-07-30T16:52:16;23.10;99.90
7216;DHT22;3649;48.798;9.798;2023-07-30T16:54:44;23.20;99.90
7216;DHT22;3649;48.798;9.798;2023-07-30T16:57:11;23.10;99.90
7216;DHT22;3649;48.798;9.798;2023-07-30T16:59:40;23.20;99.90
7216;DHT22;3649;48.798;9.798;2023-07-30T17:02:08;23.10;99.90
7216;DHT22;3649;48.798;9.798;2023-07-30T17:04:34;23.10;99.90
7216;DHT22;3649;48.798;9.798;2023-07-30T17:07:01;23.10;99.90
7216;DHT22;3649;48.798;9.798;2023-07-30T17:09:28;23.00;99.90
7216;DHT22;3649;48.798;9.798;2023-07-30T17:11:55;23.00;99.90
7216;DHT22;3649;48.798;9.798;2023-07-30T17:14:22;23.00;99.90
7216;DHT22;3649;48.798;9.798;2023-07-30T17:16:49;22.90;99.90
7216;DHT22;3649;48.798;9.798;2023-07-30T17:19:15;22.90;99.90
7216;DHT22;3649;48.798;9.798;2023-07-30T17:21:42;22.80;99.90
7216;DHT22;3649;48.798;9.798;2023-07-30T17:24:09;22.90;99.90
7216;DHT22;3649;48.798;9.798;2023-07-30T17:26:36;22.80;99.90
7216;DHT22;3649;48.798;9.798;2023-07-30T17:29:03;22.80;99.90
7216;DHT22;3649;48.798;9.798;2023-07-30T17:31:30;22.80;99.90
7216;DHT22;3649;48.798;9.798;2023-07-30T17:33:57;22.80;99.90
7216;DHT22;3649;48.798;9.798;2023-07-30T17:36:24;22.80;99.90
7216;DHT22;3649;48.798;9.798;2023-07-30T17:38:50;22.80;99.90
7216;DHT22;3649;48.798;9.798;2023-07-30T17:41:17;22.80;99.90
7216;DHT22;3649;48.798;9.798;2023-07-30T17:43:44;22.80;99.90
7216;DHT22;3649;48.798;9.798;2023-07-30T17:46:11;22.70;99.90
7216;DHT22;3649;48.798;9.798;2023-07-30T17:48:38;22.70;99.90
7216;DHT22;3649;48.798;9.798;2023-07-30T17:51:13;22.70;99.90
7216;DHT22;3649;48.798;9.798;2023-07-30T17:53:41;22.70;99.90
7216;DHT22;3649;48.798;9.798;2023-07-30T17:56:07;22.70;99.90
7216;DHT22;3649;48.798;9.798;2023-07-30T17:58:34;22.60;99.90
7216;DHT22;3649;48.798;9.798;2023-07-30T18:01:02;22.70;99.90
7216;DHT22;3649;48.798;9.798;2023-07-30T18:03:36;22.60;99.90
7216;DHT22;3649;48.798;9.798;2023-07-30T18:06:03;22.60;99.90
7216;DHT22;3649;48.798;9.798;2023-07-30T18:08:30;22.60;99.90
7216;DHT22;3649;48.798;9.798;2023-07-30T18:10:56;22.60;99.90
7216;DHT22;3649;48.798;9.798;2023-07-30T18:13:23;22.70;99.90
7216;DHT22;3649;48.798;9.798;2023-07-30T18:15:50;22.60;99.90
7216;DHT22;3649;48.798;9.798;2023-07-30T18:18:17;22.60;99.90
7216;DHT22;3649;48.798;9.798;2023-07-30T18:20:46;22.80;99.90
7216;DHT22;3649;48.798;9.798;2023-07-30T18:23:13;22.70;99.90
7216;DHT22;3649;48.798;9.798;2023-07-30T18:25:40;22.60;99.90
7216;DHT22;3649;48.798;9.798;2023-07-30T18:28:07;22.60;99.90
7216;DHT22;3649;48.798;9.798;2023-07-30T18:30:36;22.50;99.90
7216;DHT22;3649;48.798;9.798;2023-07-30T18:33:03;22.50;99.90
7216;DHT22;3649;48.798;9.798;2023-07-30T18:35:36;22.50;99.90
7216;DHT22;3649;48.798;9.798;2023-07-30T18:38:03;22.50;99.90
7216;DHT22;3649;48.798;9.798;2023-07-30T18:40:33;22.40;99.90
7216;DHT22;3649;48.798;9.798;2023-07-30T18:43:00;22.40;99.90
7216;DHT22;3649;48.798;9.798;2023-07-30T18:45:31;22.30;99.90
7216;DHT22;3649;48.798;9.798;2023-07-30T18:47:58;22.30;99.90
7216;DHT22;3649;48.798;9.798;2023-07-30T18:50:25;22.30;99.90
7216;DHT22;3649;48.798;9.798;2023-07-30T18:52:52;22.30;99.90
7216;DHT22;3649;48.798;9.798;2023-07-30T18:55:19;22.20;99.90
7216;DHT22;3649;48.798;9.798;2023-07-30T18:57:46;22.20;99.90
7216;DHT22;3649;48.798;9.798;2023-07-30T19:00:13;22.20;99.90
7216;DHT22;3649;48.798;9.798;2023-07-30T19:02:41;22.20;99.90
7216;DHT22;3649;48.798;9.798;2023-07-30T19:05:08;22.20;99.90
7216;DHT22;3649;48.798;9.798;2023-07-30T19:07:34;22.20;99.90
7216;DHT22;3649;48.798;9.798;2023-07-30T19:10:01;22.30;99.90
7216;DHT22;3649;48.798;9.798;2023-07-30T19:12:28;22.10;99.90
7216;DHT22;3649;48.798;9.798;2023-07-30T19:14:56;22.10;99.90
7216;DHT22;3649;48.798;9.798;2023-07-30T19:17:23;22.10;99.90
7216;DHT22;3649;48.798;9.798;2023-07-30T19:19:50;22.00;99.90
7216;DHT22;3649;48.798;9.798;2023-07-30T19:22:18;22.00;99.90
7216;DHT22;3649;48.798;9.798;2023-07-30T19:24:45;22.00;99.90
7216;DHT22;3649;48.798;9.798;2023-07-30T19:27:13;21.90;99.90
7216;DHT22;3649;48.798;9.798;2023-07-30T19:29:40;21.90;99.90
7216;DHT22;3649;48.798;9.798;2023-07-30T19:32:07;21.80;99.90
7216;DHT22;3649;48.798;9.798;2023-07-30T19:34:34;21.80;99.90
7216;DHT22;3649;48.798;9.798;2023-07-30T19:37:01;21.80;99.90
7216;DHT22;3649;48.798;9.798;2023-07-30T19:39:28;21.70;99.90
7216;DHT22;3649;48.798;9.798;2023-07-30T19:41:55;21.70;99.90
7216;DHT22;3649;48.798;9.798;2023-07-30T19:44:21;21.60;99.90
7216;DHT22;3649;48.798;9.798;2023-07-30T19:46:48;21.60;99.90
7216;DHT22;3649;48.798;9.798;2023-07-30T19:49:16;21.60;99.90
7216;DHT22;3649;48.798;9.798;2023-07-30T19:51:45;21.60;99.90
7216;DHT22;3649;48.798;9.798;2023-07-30T19:54:13;21.60;99.90
7216;DHT22;3649;48.798;9.798;2023-07-30T19:56:40;21.60;99.90
7216;DHT22;3649;48.798;9.798;2023-07-30T19:59:07;21.70;99.90
7216;DHT22;3649;48.798;9.798;2023-07-30T20:01:34;21.70;99.90
7216;DHT22;3649;48.798;9.798;2023-07-30T20:04:01;21.70;99.90
7216;DHT22;3649;48.798;9.798;2023-07-30T20:06:28;21.70;99.90
7216;DHT22;3649;48.798;9.798;2023-07-30T20:08:55;21.70;99.90
7216;DHT22;3649;48.798;9.798;2023-07-30T20:11:21;21.60;99.90
7216;DHT22;3649;48.798;9.798;2023-07-30T20:13:50;21.50;99.90
7216;DHT22;3649;48.798;9.798;2023-07-30T20:16:17;21.50;99.90
7216;DHT22;3649;48.798;9.798;2023-07-30T20:18:44;21.40;99.90
7216;DHT22;3649;48.798;9.798;2023-07-30T20:21:11;21.40;99.90
7216;DHT22;3649;48.798;9.798;2023-07-30T20:23:38;21.40;99.90
7216;DHT22;3649;48.798;9.798;2023-07-30T20:26:15;21.40;99.90
7216;DHT22;3649;48.798;9.798;2023-07-30T20:28:43;21.40;99.90
7216;DHT22;3649;48.798;9.798;2023-07-30T20:31:10;21.40;99.90
7216;DHT22;3649;48.798;9.798;2023-07-30T20:33:37;21.40;99.90
7216;DHT22;3649;48.798;9.798;2023-07-30T20:36:06;21.40;99.90
7216;DHT22;3649;48.798;9.798;2023-07-30T20:38:32;21.40;99.90
7216;DHT22;3649;48.798;9.798;2023-07-30T20:40:59;21.50;99.90
7216;DHT22;3649;48.798;9.798;2023-07-30T20:43:27;21.40;99.90
7216;DHT22;3649;48.798;9.798;2023-07-30T20:45:54;21.40;99.90
7216;DHT22;3649;48.798;9.798;2023-07-30T20:48:21;21.20;99.90
7216;DHT22;3649;48.798;9.798;2023-07-30T20:50:48;21.30;99.90
7216;DHT22;3649;48.798;9.798;2023-07-30T20:53:15;21.20;99.90
7216;DHT22;3649;48.798;9.798;2023-07-30T20:55:42;21.10;99.90
7216;DHT22;3649;48.798;9.798;2023-07-30T20:58:08;21.10;99.90
7216;DHT22;3649;48.798;9.798;2023-07-30T21:00:35;21.10;99.90
7216;DHT22;3649;48.798;9.798;2023-07-30T21:03:02;21.00;99.90